Terminal Aerodrome Forecast
Issued by NWS

Home | Current Version | Previous Version | Text Only | Print | Product List | Glossary On
Versions: 1 2 3 4 5 6 7 8 9 10 11 12 13 14 15 16 17 18 19 20 21 22 23 24 25 26
000
FTUS46 KSEW 252300
TAFSEA
TAF
KSEA 252330Z 2600/2706 17012G18KT P6SM -RA SCT030 OVC060
      TEMPO 2600/2601 5SM -RA BR BKN030 OVC060
     FM260100 18020G30KT P6SM -RA OVC022
      TEMPO 2604/2608 20032G48KT
     FM261300 22014G22KT P6SM -SHRA BKN015 BKN035
     FM262100 22014G22KT P6SM -SHRA SCT020 BKN040=

USA.gov is the U.S. government's official web portal to all federal, state and local government web resources and services.